Latest Weather Observations for Sheffield

IDT60801

Issued at 11:31 am EST Saturday 25 June 2016 (issued every 30 minutes, with the page automatically refreshed every 10 minutes)

About weather observations | Map of weather stations | Latest weather observations for TAS | Other Formats
Station Details ID: 091291 Name: SHEFFIELD SCHOOL FARM Lat: -41.39 Lon: 146.32 Height: 294.2 m
Data from the previous 72 hours. | See also: Recent months at Sheffield
Date/Time
EST
Temp
°C
App
Temp
°C
Dew
Point
Rel
Hum
%
Delta-T
°C
Wind Press
QNH
hPa
Press
MSL
hPa
Rain
since 9 am
mm
Dir
 
Spd
km/h
Gust
km/h
Spd
kts
Gust
kts
25/11:30am - - - - - NW 9 11 5 6 1017.8 1018.4 0.0
25/11:00am - - - - - WNW 9 15 5 8 1017.9 1018.5 0.0
25/10:30am - - - - - SSW 17 26 9 14 1017.8 1018.4 0.0
25/10:00am - - - - - SSW 9 22 5 12 1017.5 1018.1 0.0
25/09:30am - - - - - S 6 17 3 9 1017.4 1018.0 0.0
25/09:00am - - - - - SSE 9 19 5 10 1017.2 1017.7 0.2
25/08:30am - - - - - NW 6 9 3 5 1016.9 1017.4 0.2
25/08:00am - - - - - WSW 4 9 2 5 1016.7 1017.2 0.2
25/07:30am - - - - - WNW 7 9 4 5 1016.4 1016.9 0.2
25/07:00am - - - - - WNW 7 9 4 5 1016.0 1016.5 0.2
25/06:30am - - - - - WNW 7 11 4 6 1015.7 1016.2 0.2
25/06:00am - - - - - NW 9 11 5 6 1015.2 1015.8 0.2
25/05:30am - - - - - W 7 9 4 5 1015.1 1015.7 0.2
25/05:00am - - - - - W 9 13 5 7 1014.5 1015.0 0.2
25/04:30am - - - - - W 9 11 5 6 1014.3 1014.8 0.2
25/04:00am - - - - - W 9 11 5 6 1014.3 1014.8 0.2
25/03:30am - - - - - WSW 11 15 6 8 1013.9 1014.4 0.2
25/03:00am - - - - - SW 19 22 10 12 1013.7 1014.2 0.2
25/02:30am - - - - - SW 22 30 12 16 1013.4 1013.9 0.2
25/02:00am - - - - - SW 26 37 14 20 1012.9 1013.4 0.2
25/01:30am - - - - - SSW 17 28 9 15 1012.6 1013.1 0.2
25/01:00am - - - - - SW 17 28 9 15 1012.0 1012.5 0.2
25/12:30am - - - - - WSW 19 35 10 19 1011.6 1012.1 0.2
25/12:00am - - - - - W 9 15 5 8 1011.4 1011.9 0.2
 
Date/Time
EST
Temp
°C
App
Temp
°C
Dew
Point
Rel
Hum
%
Delta-T
°C
Wind Press
QNH
hPa
Press
MSL
hPa
Rain
since 9 am
mm
Dir
 
Spd
km/h
Gust
km/h
Spd
kts
Gust
kts
24/11:30pm - - - - - W 11 15 6 8 1010.9 1011.4 0.2
24/11:00pm - - - - - WSW 7 15 4 8 1010.7 1011.2 0.2
24/10:30pm - - - - - SW 13 20 7 11 1010.2 1010.7 0.2
24/10:00pm - - - - - WSW 11 22 6 12 1009.7 1010.2 0.2
24/09:30pm - - - - - S 9 15 5 8 1008.9 1009.4 0.2
24/09:00pm - - - - - SE 6 17 3 9 1008.2 1008.7 0.2
24/08:30pm - - - - - SSW 9 15 5 8 1007.9 1008.4 0.2
24/08:00pm - - - - - SSE 6 9 3 5 1007.4 1007.9 0.2
24/07:30pm - - - - - WSW 9 17 5 9 1006.9 1007.4 0.2
24/07:00pm - - - - - SSW 6 11 3 6 1006.3 1006.8 0.2
24/06:30pm - - - - - SSW 11 19 6 10 1005.6 1006.0 0.2
24/06:00pm - - - - - SSW 19 32 10 17 1004.4 1004.9 0.2
24/05:30pm - - - - - SW 11 13 6 7 1004.0 1004.5 0.2
24/05:00pm - - - - - SW 19 32 10 17 1003.2 1003.7 0.2
24/04:30pm - - - - - W 6 11 3 6 1002.4 1002.8 0.2
24/04:00pm - - - - - SW 11 19 6 10 1001.9 1002.3 0.2
24/03:30pm - - - - - WSW 19 24 10 13 1001.3 1001.7 0.2
24/03:00pm - - - - - WSW 17 22 9 12 1000.3 1000.8 0.2
24/02:30pm - - - - - WSW 15 22 8 12 999.8 1000.2 0.2
24/02:00pm - - - - - WSW 17 24 9 13 999.6 1000.0 0.2
24/01:30pm - - - - - WSW 17 26 9 14 999.1 999.5 0.2
24/01:00pm - - - - - WSW 17 24 9 13 998.8 999.2 0.2
24/12:30pm - - - - - WSW 20 30 11 16 998.6 999.0 0.2
24/12:00pm - - - - - W 15 24 8 13 998.4 998.8 0.2
24/11:30am - - - - - W 13 17 7 9 998.6 999.0 0.2
24/11:00am - - - - - W 11 15 6 8 998.6 999.0 0.2
24/10:30am - - - - - NNW 7 9 4 5 998.2 998.6 0.2
24/10:00am - - - - - NW 6 7 3 4 997.7 998.1 0.2
24/09:30am - - - - - N 2 2 1 1 997.1 997.5 0.0
24/09:00am - - - - - WNW 4 6 2 3 997.0 997.4 13.2
24/08:30am - - - - - WNW 6 9 3 5 996.6 997.0 13.2
24/08:00am - - - - - N 6 6 3 3 996.0 996.4 13.2
24/07:30am - - - - - WNW 6 6 3 3 996.0 996.4 13.2
24/07:00am - - - - - W 6 7 3 4 995.7 996.1 13.2
24/06:30am - - - - - WNW 7 11 4 6 995.7 996.1 13.2
24/06:00am - - - - - CALM 0 6 0 3 995.3 995.7 13.2
24/05:30am - - - - - NW 4 6 2 3 995.1 995.5 13.2
24/05:00am - - - - - NW 6 6 3 3 994.9 995.3 13.2
24/04:30am - - - - - NNW 7 9 4 5 994.7 995.1 13.2
24/04:00am - - - - - NW 6 9 3 5 994.6 994.9 13.2
24/03:30am - - - - - WNW 7 9 4 5 994.4 994.7 13.2
24/03:00am - - - - - NNW 9 9 5 5 994.4 994.7 13.2
24/02:30am - - - - - NNW 4 6 2 3 994.4 994.7 13.2
24/02:00am - - - - - NNW 7 9 4 5 994.4 994.7 13.2
24/01:30am - - - - - NNW 9 11 5 6 994.2 994.5 13.2
24/01:00am - - - - - NNW 9 11 5 6 994.0 994.4 13.2
24/12:30am - - - - - NNW 4 6 2 3 993.8 994.2 13.2
24/12:00am - - - - - N 7 9 4 5 993.8 994.2 13.2
 
Date/Time
EST
Temp
°C
App
Temp
°C
Dew
Point
Rel
Hum
%
Delta-T
°C
Wind Press
QNH
hPa
Press
MSL
hPa
Rain
since 9 am
mm
Dir
 
Spd
km/h
Gust
km/h
Spd
kts
Gust
kts
23/11:30pm - - - - - N 7 9 4 5 993.9 994.3 13.2
23/11:00pm - - - - - NNW 7 9 4 5 993.7 994.1 13.2
23/10:30pm - - - - - NNW 11 11 6 6 993.7 994.1 13.2
23/10:00pm - - - - - N 6 7 3 4 993.5 993.9 13.2
23/09:30pm - - - - - NW 7 9 4 5 993.7 994.1 13.2
23/09:00pm - - - - - NNW 6 7 3 4 993.6 994.0 13.2
23/08:30pm - - - - - N 7 7 4 4 993.4 993.8 13.2
23/08:00pm - - - - - WNW 6 15 3 8 992.9 993.3 13.2
23/07:30pm - - - - - NW 15 19 8 10 991.8 992.2 13.2
23/07:00pm - - - - - WNW 9 15 5 8 991.4 991.7 13.2
23/06:30pm - - - - - WNW 13 22 7 12 991.4 991.7 13.2
23/06:00pm - - - - - WNW 13 20 7 11 990.6 990.9 13.2
23/05:30pm - - - - - WNW 15 22 8 12 990.4 990.8 13.2
23/05:00pm - - - - - W 13 22 7 12 990.1 990.5 13.0
23/04:30pm - - - - - WSW 11 17 6 9 989.3 989.7 12.8
23/04:00pm - - - - - W 20 33 11 18 989.1 989.5 12.6
23/03:30pm - - - - - W 17 24 9 13 988.8 989.1 12.2
23/03:00pm - - - - - WSW 11 20 6 11 989.2 989.6 11.2
23/02:30pm - - - - - W 15 20 8 11 989.2 989.6 9.4
23/02:00pm - - - - - W 6 9 3 5 989.4 989.8 7.6
23/01:30pm - - - - - W 6 9 3 5 989.9 990.3 6.8
23/01:00pm - - - - - NNW 9 13 5 7 990.8 991.1 5.2
23/12:30pm - - - - - NW 13 17 7 9 991.6 991.9 4.2
23/12:00pm - - - - - NW 20 26 11 14 992.5 992.9 3.4
23/11:30am - - - - - NNW 17 20 9 11 992.8 993.2 2.8
23/11:00am - - - - - NNW 17 22 9 12 993.4 993.8 2.8
23/10:30am - - - - - NW 19 24 10 13 993.7 994.1 2.6
23/10:00am - - - - - NNW 17 24 9 13 993.4 993.8 2.6
23/09:30am - - - - - NW 24 33 13 18 993.7 994.1 2.0
23/09:00am - - - - - NW 17 24 9 13 994.3 994.6 11.2
23/08:30am - - - - - NW 17 22 9 12 994.4 994.7 10.4
23/08:00am - - - - - NNW 9 13 5 7 994.0 994.4 9.6
23/07:30am - - - - - NNW 7 9 4 5 994.5 994.8 9.6
23/07:00am - - - - - NW 6 9 3 5 994.4 994.7 9.6
23/06:30am - - - - - CALM 0 0 0 0 994.6 994.9 9.6
23/06:00am - - - - - WNW 4 6 2 3 994.8 995.2 9.4
23/05:30am - - - - - NNW 15 19 8 10 994.6 994.9 7.0
23/05:00am - - - - - NNW 13 15 7 8 994.7 995.1 7.0
23/04:30am - - - - - NW 9 11 5 6 995.2 995.6 7.0
23/04:00am - - - - - NW 2 4 1 2 995.6 996.0 6.8
23/03:30am - - - - - NW 4 7 2 4 996.5 996.9 4.6
23/03:00am - - - - - ENE 4 6 2 3 996.6 997.0 1.2
23/02:30am - - - - - CALM 0 0 0 0 997.4 997.8 1.0
23/02:00am - - - - - CALM 0 0 0 0 998.0 998.4 1.0
23/01:30am - - - - - NW 2 4 1 2 998.2 998.6 1.0
23/01:00am - - - - - N 6 6 3 3 998.6 999.0 1.0
23/12:30am - - - - - NNW 4 4 2 2 998.9 999.3 1.0
23/12:00am - - - - - NNW 7 9 4 5 999.1 999.5 1.0
 
Date/Time
EST
Temp
°C
App
Temp
°C
Dew
Point
Rel
Hum
%
Delta-T
°C
Wind Press
QNH
hPa
Press
MSL
hPa
Rain
since 9 am
mm
Dir
 
Spd
km/h
Gust
km/h
Spd
kts
Gust
kts
22/11:30pm - - - - - NNW 4 7 2 4 999.3 999.7 1.0
22/11:00pm - - - - - WNW 7 11 4 6 999.6 1000.0 1.0
22/10:30pm - - - - - NW 11 15 6 8 999.4 999.8 1.0
22/10:00pm - - - - - NW 15 19 8 10 999.5 999.9 1.0
22/09:30pm - - - - - WNW 17 26 9 14 999.6 1000.0 1.0
22/09:00pm - - - - - NW 17 24 9 13 999.8 1000.2 1.0
22/08:30pm - - - - - WNW 13 20 7 11 999.3 999.7 1.0
22/08:00pm - - - - - WNW 9 15 5 8 999.0 999.4 1.0
22/07:30pm - - - - - W 11 19 6 10 998.6 999.0 1.0
22/07:00pm - - - - - W 11 17 6 9 998.4 998.8 1.0
22/06:30pm - - - - - WNW 9 13 5 7 997.8 998.2 1.0
22/06:00pm - - - - - WNW 13 17 7 9 997.3 997.7 1.0
22/05:30pm - - - - - W 17 22 9 12 996.6 997.0 1.0
22/05:00pm - - - - - W 20 35 11 19 996.1 996.5 1.0
22/04:30pm - - - - - WNW 24 39 13 21 995.5 995.9 1.0
22/04:00pm - - - - - WNW 22 41 12 22 994.8 995.2 1.0
22/03:30pm - - - - - W 30 46 16 25 994.4 994.7 1.0
22/03:02pm - - - - - W 33 63 18 34 993.6 994.0 0.8
22/03:00pm - - - - - WNW 32 46 17 25 993.5 993.9 0.8
22/02:30pm - - - - - W 43 76 23 41 992.4 992.8 0.8
22/02:04pm - - - - - WSW 39 67 21 36 992.0 992.4 0.8
22/02:00pm - - - - - WSW 39 56 21 30 992.2 992.6 0.8
22/01:30pm - - - - - W 37 57 20 31 991.5 991.8 0.8
22/01:00pm - - - - - W 35 59 19 32 991.3 991.6 0.8
22/12:30pm - - - - - WNW 28 46 15 25 991.7 992.0 0.6
22/12:04pm - - - - - W 32 52 17 28 991.7 992.0 0.0
22/12:00pm - - - - - W 33 50 18 27 991.7 992.0 0.0

Other Formats:

Comma delimited format used in spreadsheet applications
http://www.bom.gov.au/fwo/IDT60801/IDT60801.94955.axf

JavaScript Object Notation format (JSON) in row-major order
http://www.bom.gov.au/fwo/IDT60801/IDT60801.94955.json